sensor_id;sensor_type;location;lat;lon;timestamp;temperature;humidity
9043;DHT22;4556;49.150;8.808;2023-05-19T00:01:22;9.60;99.90
9043;DHT22;4556;49.150;8.808;2023-05-19T00:03:59;9.60;99.90
9043;DHT22;4556;49.150;8.808;2023-05-19T00:06:29;10.30;99.90
9043;DHT22;4556;49.150;8.808;2023-05-19T00:09:00;9.30;99.90
9043;DHT22;4556;49.150;8.808;2023-05-19T00:11:29;9.30;99.90
9043;DHT22;4556;49.150;8.808;2023-05-19T00:13:57;9.30;99.90
9043;DHT22;4556;49.150;8.808;2023-05-19T00:16:26;9.20;99.90
9043;DHT22;4556;49.150;8.808;2023-05-19T00:19:01;9.40;99.90
9043;DHT22;4556;49.150;8.808;2023-05-19T00:21:28;10.60;99.90
9043;DHT22;4556;49.150;8.808;2023-05-19T00:23:56;9.00;99.90
9043;DHT22;4556;49.150;8.808;2023-05-19T00:26:24;9.10;99.90
9043;DHT22;4556;49.150;8.808;2023-05-19T00:28:53;8.20;99.90
9043;DHT22;4556;49.150;8.808;2023-05-19T00:31:20;8.70;99.90
9043;DHT22;4556;49.150;8.808;2023-05-19T00:33:48;10.00;99.90
9043;DHT22;4556;49.150;8.808;2023-05-19T00:36:16;8.70;99.90
9043;DHT22;4556;49.150;8.808;2023-05-19T00:38:43;8.70;99.90
9043;DHT22;4556;49.150;8.808;2023-05-19T00:41:10;8.60;99.90
9043;DHT22;4556;49.150;8.808;2023-05-19T00:43:37;8.60;99.90
9043;DHT22;4556;49.150;8.808;2023-05-19T00:46:06;8.50;99.90
9043;DHT22;4556;49.150;8.808;2023-05-19T00:48:32;8.50;99.90
9043;DHT22;4556;49.150;8.808;2023-05-19T00:51:03;8.50;99.90
9043;DHT22;4556;49.150;8.808;2023-05-19T00:53:31;9.40;99.90
9043;DHT22;4556;49.150;8.808;2023-05-19T00:56:00;8.50;99.90
9043;DHT22;4556;49.150;8.808;2023-05-19T00:58:28;8.40;99.90
9043;DHT22;4556;49.150;8.808;2023-05-19T01:00:57;8.50;99.90
9043;DHT22;4556;49.150;8.808;2023-05-19T01:03:30;8.30;99.90
9043;DHT22;4556;49.150;8.808;2023-05-19T01:05:59;8.40;99.90
9043;DHT22;4556;49.150;8.808;2023-05-19T01:08:38;8.40;99.90
9043;DHT22;4556;49.150;8.808;2023-05-19T01:11:05;8.30;99.90
9043;DHT22;4556;49.150;8.808;2023-05-19T01:13:38;8.20;99.90
9043;DHT22;4556;49.150;8.808;2023-05-19T01:16:10;7.50;99.90
9043;DHT22;4556;49.150;8.808;2023-05-19T01:18:44;9.70;99.90
9043;DHT22;4556;49.150;8.808;2023-05-19T01:22:07;8.90;99.90
9043;DHT22;4556;49.150;8.808;2023-05-19T01:25:20;8.10;99.90
9043;DHT22;4556;49.150;8.808;2023-05-19T01:31:00;8.10;99.90
9043;DHT22;4556;49.150;8.808;2023-05-19T01:33:29;8.00;99.90
9043;DHT22;4556;49.150;8.808;2023-05-19T01:36:02;8.00;99.90
9043;DHT22;4556;49.150;8.808;2023-05-19T01:38:32;8.00;99.90
9043;DHT22;4556;49.150;8.808;2023-05-19T01:41:00;8.10;99.90
9043;DHT22;4556;49.150;8.808;2023-05-19T01:43:28;7.90;99.90
9043;DHT22;4556;49.150;8.808;2023-05-19T01:45:56;8.00;99.90
9043;DHT22;4556;49.150;8.808;2023-05-19T01:48:26;8.00;99.90
9043;DHT22;4556;49.150;8.808;2023-05-19T01:51:02;8.00;99.90
9043;DHT22;4556;49.150;8.808;2023-05-19T01:53:29;7.90;99.90
9043;DHT22;4556;49.150;8.808;2023-05-19T01:55:56;7.20;99.90
9043;DHT22;4556;49.150;8.808;2023-05-19T01:58:30;7.50;99.90
9043;DHT22;4556;49.150;8.808;2023-05-19T02:01:04;8.00;99.90
9043;DHT22;4556;49.150;8.808;2023-05-19T02:03:59;8.00;99.90
9043;DHT22;4556;49.150;8.808;2023-05-19T02:06:39;7.50;99.90
9043;DHT22;4556;49.150;8.808;2023-05-19T02:09:14;8.40;99.90
9043;DHT22;4556;49.150;8.808;2023-05-19T02:12:01;7.30;99.90
9043;DHT22;4556;49.150;8.808;2023-05-19T02:14:39;8.10;99.90
9043;DHT22;4556;49.150;8.808;2023-05-19T02:17:17;8.40;99.90
9043;DHT22;4556;49.150;8.808;2023-05-19T02:19:47;8.60;99.90
9043;DHT22;4556;49.150;8.808;2023-05-19T02:22:14;8.40;99.90
9043;DHT22;4556;49.150;8.808;2023-05-19T02:24:41;7.60;99.90
9043;DHT22;4556;49.150;8.808;2023-05-19T02:27:08;8.10;99.90
9043;DHT22;4556;49.150;8.808;2023-05-19T02:29:37;8.40;99.90
9043;DHT22;4556;49.150;8.808;2023-05-19T02:32:09;8.10;99.90
9043;DHT22;4556;49.150;8.808;2023-05-19T02:34:37;9.20;99.90
9043;DHT22;4556;49.150;8.808;2023-05-19T02:37:13;8.00;99.90
9043;DHT22;4556;49.150;8.808;2023-05-19T02:39:40;8.10;99.90
9043;DHT22;4556;49.150;8.808;2023-05-19T02:42:07;8.20;99.90
9043;DHT22;4556;49.150;8.808;2023-05-19T02:44:41;8.10;99.90
9043;DHT22;4556;49.150;8.808;2023-05-19T02:47:15;8.10;99.90
9043;DHT22;4556;49.150;8.808;2023-05-19T02:49:43;7.30;99.90
9043;DHT22;4556;49.150;8.808;2023-05-19T02:52:10;8.00;99.90
9043;DHT22;4556;49.150;8.808;2023-05-19T02:54:45;8.90;99.90
9043;DHT22;4556;49.150;8.808;2023-05-19T02:57:11;7.90;99.90
9043;DHT22;4556;49.150;8.808;2023-05-19T02:59:38;7.70;99.90
9043;DHT22;4556;49.150;8.808;2023-05-19T03:02:09;8.00;99.90
9043;DHT22;4556;49.150;8.808;2023-05-19T03:04:36;8.10;99.90
9043;DHT22;4556;49.150;8.808;2023-05-19T03:07:06;8.30;99.90
9043;DHT22;4556;49.150;8.808;2023-05-19T03:09:38;8.50;99.90
9043;DHT22;4556;49.150;8.808;2023-05-19T03:12:09;8.40;99.90
9043;DHT22;4556;49.150;8.808;2023-05-19T03:14:37;7.70;99.90
9043;DHT22;4556;49.150;8.808;2023-05-19T03:17:04;7.60;99.90
9043;DHT22;4556;49.150;8.808;2023-05-19T03:19:34;9.50;99.90
9043;DHT22;4556;49.150;8.808;2023-05-19T03:22:01;8.00;99.90
9043;DHT22;4556;49.150;8.808;2023-05-19T03:24:50;8.70;99.90
9043;DHT22;4556;49.150;8.808;2023-05-19T03:27:20;7.60;99.90
9043;DHT22;4556;49.150;8.808;2023-05-19T03:29:47;8.70;99.90
9043;DHT22;4556;49.150;8.808;2023-05-19T03:32:15;8.20;99.90
9043;DHT22;4556;49.150;8.808;2023-05-19T03:34:42;8.40;99.90
9043;DHT22;4556;49.150;8.808;2023-05-19T03:37:19;8.80;99.90
9043;DHT22;4556;49.150;8.808;2023-05-19T03:39:47;7.70;99.90
9043;DHT22;4556;49.150;8.808;2023-05-19T03:42:14;7.70;99.90
9043;DHT22;4556;49.150;8.808;2023-05-19T03:44:43;8.20;99.90
9043;DHT22;4556;49.150;8.808;2023-05-19T03:47:18;9.10;99.90
9043;DHT22;4556;49.150;8.808;2023-05-19T03:49:56;8.20;99.90
9043;DHT22;4556;49.150;8.808;2023-05-19T03:52:23;9.20;99.90
9043;DHT22;4556;49.150;8.808;2023-05-19T03:54:51;7.10;99.90
9043;DHT22;4556;49.150;8.808;2023-05-19T03:57:21;8.20;99.90
9043;DHT22;4556;49.150;8.808;2023-05-19T04:00:18;9.70;99.90
9043;DHT22;4556;49.150;8.808;2023-05-19T04:02:49;9.00;99.90
9043;DHT22;4556;49.150;8.808;2023-05-19T04:05:43;8.50;99.90
9043;DHT22;4556;49.150;8.808;2023-05-19T04:08:25;8.50;99.90
9043;DHT22;4556;49.150;8.808;2023-05-19T04:10:52;8.60;99.90
9043;DHT22;4556;49.150;8.808;2023-05-19T04:13:20;8.00;99.90
9043;DHT22;4556;49.150;8.808;2023-05-19T04:15:49;9.10;99.90
9043;DHT22;4556;49.150;8.808;2023-05-19T04:18:15;8.60;99.90
9043;DHT22;4556;49.150;8.808;2023-05-19T04:20:44;7.80;99.90
9043;DHT22;4556;49.150;8.808;2023-05-19T04:23:12;7.70;99.90
9043;DHT22;4556;49.150;8.808;2023-05-19T04:25:39;8.30;99.90
9043;DHT22;4556;49.150;8.808;2023-05-19T04:28:06;8.30;99.90
9043;DHT22;4556;49.150;8.808;2023-05-19T04:30:33;8.20;99.90
9043;DHT22;4556;49.150;8.808;2023-05-19T04:33:02;8.50;99.90
9043;DHT22;4556;49.150;8.808;2023-05-19T04:35:31;7.70;99.90
9043;DHT22;4556;49.150;8.808;2023-05-19T04:38:02;10.40;99.90
9043;DHT22;4556;49.150;8.808;2023-05-19T04:40:34;7.80;99.90
9043;DHT22;4556;49.150;8.808;2023-05-19T04:43:01;9.00;99.90
9043;DHT22;4556;49.150;8.808;2023-05-19T04:45:34;11.50;99.90
9043;DHT22;4556;49.150;8.808;2023-05-19T04:48:16;10.00;99.90
9043;DHT22;4556;49.150;8.808;2023-05-19T04:50:46;9.10;99.90
9043;DHT22;4556;49.150;8.808;2023-05-19T04:53:14;8.30;99.90
9043;DHT22;4556;49.150;8.808;2023-05-19T04:55:41;8.90;99.90
9043;DHT22;4556;49.150;8.808;2023-05-19T04:58:08;8.90;99.90
9043;DHT22;4556;49.150;8.808;2023-05-19T05:00:42;8.20;99.90
9043;DHT22;4556;49.150;8.808;2023-05-19T05:03:17;9.40;99.90
9043;DHT22;4556;49.150;8.808;2023-05-19T05:05:49;10.90;99.90
9043;DHT22;4556;49.150;8.808;2023-05-19T05:08:27;10.10;99.90
9043;DHT22;4556;49.150;8.808;2023-05-19T05:11:06;10.50;99.90
9043;DHT22;4556;49.150;8.808;2023-05-19T05:13:33;9.60;99.90
9043;DHT22;4556;49.150;8.808;2023-05-19T05:16:04;9.50;99.90
9043;DHT22;4556;49.150;8.808;2023-05-19T05:21:50;10.40;99.90
9043;DHT22;4556;49.150;8.808;2023-05-19T05:24:33;8.30;99.90
9043;DHT22;4556;49.150;8.808;2023-05-19T05:27:00;9.70;99.90
9043;DHT22;4556;49.150;8.808;2023-05-19T05:29:35;9.80;99.90
9043;DHT22;4556;49.150;8.808;2023-05-19T05:32:09;10.40;99.90
9043;DHT22;4556;49.150;8.808;2023-05-19T05:34:38;10.20;99.90
9043;DHT22;4556;49.150;8.808;2023-05-19T05:37:18;10.70;99.90
9043;DHT22;4556;49.150;8.808;2023-05-19T05:39:56;11.80;99.90
9043;DHT22;4556;49.150;8.808;2023-05-19T05:42:28;11.40;99.90
9043;DHT22;4556;49.150;8.808;2023-05-19T05:44:55;10.80;99.90
9043;DHT22;4556;49.150;8.808;2023-05-19T05:47:22;10.80;99.90
9043;DHT22;4556;49.150;8.808;2023-05-19T05:49:50;10.70;99.90
9043;DHT22;4556;49.150;8.808;2023-05-19T05:52:20;10.60;99.90
9043;DHT22;4556;49.150;8.808;2023-05-19T05:54:56;10.80;99.90
9043;DHT22;4556;49.150;8.808;2023-05-19T05:57:36;10.50;99.90
9043;DHT22;4556;49.150;8.808;2023-05-19T06:00:07;10.60;99.90
9043;DHT22;4556;49.150;8.808;2023-05-19T06:02:40;10.60;99.90
9043;DHT22;4556;49.150;8.808;2023-05-19T06:05:08;10.10;99.90
9043;DHT22;4556;49.150;8.808;2023-05-19T06:07:38;10.80;99.90
9043;DHT22;4556;49.150;8.808;2023-05-19T06:10:06;10.80;99.90
9043;DHT22;4556;49.150;8.808;2023-05-19T06:12:55;11.00;99.90
9043;DHT22;4556;49.150;8.808;2023-05-19T06:15:22;10.80;99.90
9043;DHT22;4556;49.150;8.808;2023-05-19T06:17:49;11.40;99.90
9043;DHT22;4556;49.150;8.808;2023-05-19T06:20:17;12.00;99.90
9043;DHT22;4556;49.150;8.808;2023-05-19T06:22:47;11.90;99.90
9043;DHT22;4556;49.150;8.808;2023-05-19T06:25:17;12.10;99.90
9043;DHT22;4556;49.150;8.808;2023-05-19T06:27:45;13.40;99.90
9043;DHT22;4556;49.150;8.808;2023-05-19T06:30:14;12.90;99.90
9043;DHT22;4556;49.150;8.808;2023-05-19T06:32:41;12.90;99.90
9043;DHT22;4556;49.150;8.808;2023-05-19T06:35:08;13.20;99.90
9043;DHT22;4556;49.150;8.808;2023-05-19T06:37:35;13.40;99.90
9043;DHT22;4556;49.150;8.808;2023-05-19T06:40:05;15.30;99.90
9043;DHT22;4556;49.150;8.808;2023-05-19T06:42:32;14.20;99.90
9043;DHT22;4556;49.150;8.808;2023-05-19T06:44:59;14.70;99.90
9043;DHT22;4556;49.150;8.808;2023-05-19T06:50:00;13.40;99.90
9043;DHT22;4556;49.150;8.808;2023-05-19T06:52:37;14.00;99.90
9043;DHT22;4556;49.150;8.808;2023-05-19T06:55:07;13.60;99.90
9043;DHT22;4556;49.150;8.808;2023-05-19T06:57:34;13.60;99.90
9043;DHT22;4556;49.150;8.808;2023-05-19T07:00:02;14.90;99.90
9043;DHT22;4556;49.150;8.808;2023-05-19T07:02:31;13.90;99.90
9043;DHT22;4556;49.150;8.808;2023-05-19T07:04:58;13.80;99.90
9043;DHT22;4556;49.150;8.808;2023-05-19T07:07:25;15.30;99.90
9043;DHT22;4556;49.150;8.808;2023-05-19T07:09:52;14.90;99.90
9043;DHT22;4556;49.150;8.808;2023-05-19T07:12:38;14.80;99.90
9043;DHT22;4556;49.150;8.808;2023-05-19T07:15:08;14.70;99.90
9043;DHT22;4556;49.150;8.808;2023-05-19T07:17:41;13.70;99.90
9043;DHT22;4556;49.150;8.808;2023-05-19T10:58:54;16.70;99.90
9043;DHT22;4556;49.150;8.808;2023-05-19T11:01:29;16.70;99.90
9043;DHT22;4556;49.150;8.808;2023-05-19T11:06:50;16.70;99.90
9043;DHT22;4556;49.150;8.808;2023-05-19T11:09:18;16.80;99.90
9043;DHT22;4556;49.150;8.808;2023-05-19T11:11:46;16.70;99.90
9043;DHT22;4556;49.150;8.808;2023-05-19T11:14:17;16.70;99.90
9043;DHT22;4556;49.150;8.808;2023-05-19T11:16:47;16.80;99.90
9043;DHT22;4556;49.150;8.808;2023-05-19T11:19:18;17.10;99.90
9043;DHT22;4556;49.150;8.808;2023-05-19T11:21:49;17.20;99.90
9043;DHT22;4556;49.150;8.808;2023-05-19T11:24:33;17.10;99.90
9043;DHT22;4556;49.150;8.808;2023-05-19T11:27:18;17.10;99.90
9043;DHT22;4556;49.150;8.808;2023-05-19T12:44:31;16.40;99.90
9043;DHT22;4556;49.150;8.808;2023-05-19T12:46:58;16.40;99.90
9043;DHT22;4556;49.150;8.808;2023-05-19T12:49:52;16.90;99.90
9043;DHT22;4556;49.150;8.808;2023-05-19T12:52:20;16.40;99.90
9043;DHT22;4556;49.150;8.808;2023-05-19T12:54:48;16.50;99.90
9043;DHT22;4556;49.150;8.808;2023-05-19T12:57:23;16.50;99.90
9043;DHT22;4556;49.150;8.808;2023-05-19T13:00:20;16.50;99.90
9043;DHT22;4556;49.150;8.808;2023-05-19T13:03:14;17.00;99.90
9043;DHT22;4556;49.150;8.808;2023-05-19T13:05:48;17.30;99.90
9043;DHT22;4556;49.150;8.808;2023-05-19T13:08:16;16.70;99.90
9043;DHT22;4556;49.150;8.808;2023-05-19T13:10:44;16.30;99.90
9043;DHT22;4556;49.150;8.808;2023-05-19T13:13:12;16.10;99.90
9043;DHT22;4556;49.150;8.808;2023-05-19T13:15:55;17.60;99.90
9043;DHT22;4556;49.150;8.808;2023-05-19T13:18:29;16.40;99.90
9043;DHT22;4556;49.150;8.808;2023-05-19T13:20:59;16.10;99.90
9043;DHT22;4556;49.150;8.808;2023-05-19T13:23:26;16.40;99.90
9043;DHT22;4556;49.150;8.808;2023-05-19T13:25:53;15.90;99.90
9043;DHT22;4556;49.150;8.808;2023-05-19T13:28:21;16.10;99.90
9043;DHT22;4556;49.150;8.808;2023-05-19T13:30:49;16.00;99.90
9043;DHT22;4556;49.150;8.808;2023-05-19T13:33:16;16.40;99.90
9043;DHT22;4556;49.150;8.808;2023-05-19T13:35:45;16.30;99.90
9043;DHT22;4556;49.150;8.808;2023-05-19T13:38:13;16.00;99.90
9043;DHT22;4556;49.150;8.808;2023-05-19T13:40:40;16.10;99.90
9043;DHT22;4556;49.150;8.808;2023-05-19T13:43:07;16.30;99.90
9043;DHT22;4556;49.150;8.808;2023-05-19T13:45:34;16.20;99.90
9043;DHT22;4556;49.150;8.808;2023-05-19T13:48:02;16.80;99.90
9043;DHT22;4556;49.150;8.808;2023-05-19T13:50:33;16.10;99.90
9043;DHT22;4556;49.150;8.808;2023-05-19T13:53:13;16.30;99.90
9043;DHT22;4556;49.150;8.808;2023-05-19T13:55:41;16.10;99.90
9043;DHT22;4556;49.150;8.808;2023-05-19T13:58:08;16.20;99.90
9043;DHT22;4556;49.150;8.808;2023-05-19T14:00:39;16.60;99.90
9043;DHT22;4556;49.150;8.808;2023-05-19T14:03:23;16.10;99.90
9043;DHT22;4556;49.150;8.808;2023-05-19T14:05:52;16.20;99.90
9043;DHT22;4556;49.150;8.808;2023-05-19T14:08:25;17.80;99.90
9043;DHT22;4556;49.150;8.808;2023-05-19T14:10:54;16.10;99.90
9043;DHT22;4556;49.150;8.808;2023-05-19T14:13:21;16.60;99.90
9043;DHT22;4556;49.150;8.808;2023-05-19T14:15:51;16.10;99.90
9043;DHT22;4556;49.150;8.808;2023-05-19T14:18:18;16.10;99.90
9043;DHT22;4556;49.150;8.808;2023-05-19T14:20:47;16.30;99.90
9043;DHT22;4556;49.150;8.808;2023-05-19T14:23:14;16.80;99.90
9043;DHT22;4556;49.150;8.808;2023-05-19T14:25:41;16.30;99.90
9043;DHT22;4556;49.150;8.808;2023-05-19T14:28:09;16.20;99.90
9043;DHT22;4556;49.150;8.808;2023-05-19T14:30:36;16.50;99.90
9043;DHT22;4556;49.150;8.808;2023-05-19T14:33:05;16.40;99.90
9043;DHT22;4556;49.150;8.808;2023-05-19T14:35:33;16.40;99.90
9043;DHT22;4556;49.150;8.808;2023-05-19T14:38:05;16.00;99.90
9043;DHT22;4556;49.150;8.808;2023-05-19T14:40:35;15.90;99.90
9043;DHT22;4556;49.150;8.808;2023-05-19T14:43:02;15.90;99.90
9043;DHT22;4556;49.150;8.808;2023-05-19T14:45:29;16.10;99.90
9043;DHT22;4556;49.150;8.808;2023-05-19T14:47:57;16.00;99.90
9043;DHT22;4556;49.150;8.808;2023-05-19T14:50:24;16.30;99.90
9043;DHT22;4556;49.150;8.808;2023-05-19T14:52:51;16.20;99.90
9043;DHT22;4556;49.150;8.808;2023-05-19T14:55:20;16.10;99.90
9043;DHT22;4556;49.150;8.808;2023-05-19T14:57:47;16.20;99.90
9043;DHT22;4556;49.150;8.808;2023-05-19T15:00:15;16.40;99.90
9043;DHT22;4556;49.150;8.808;2023-05-19T15:02:45;16.50;99.90
9043;DHT22;4556;49.150;8.808;2023-05-19T15:05:14;17.20;99.90
9043;DHT22;4556;49.150;8.808;2023-05-19T15:07:41;17.80;99.90
9043;DHT22;4556;49.150;8.808;2023-05-19T15:10:17;17.90;99.90
9043;DHT22;4556;49.150;8.808;2023-05-19T15:12:46;16.60;99.90
9043;DHT22;4556;49.150;8.808;2023-05-19T15:15:13;17.50;99.90
9043;DHT22;4556;49.150;8.808;2023-05-19T15:17:41;17.40;99.90
9043;DHT22;4556;49.150;8.808;2023-05-19T15:20:13;16.80;99.90
9043;DHT22;4556;49.150;8.808;2023-05-19T15:22:40;17.00;99.90
9043;DHT22;4556;49.150;8.808;2023-05-19T15:25:08;16.80;99.90
9043;DHT22;4556;49.150;8.808;2023-05-19T15:27:35;17.40;99.90
9043;DHT22;4556;49.150;8.808;2023-05-19T15:30:19;17.00;99.90
9043;DHT22;4556;49.150;8.808;2023-05-19T15:32:50;16.80;99.90
9043;DHT22;4556;49.150;8.808;2023-05-19T15:35:17;16.80;99.90
9043;DHT22;4556;49.150;8.808;2023-05-19T15:37:44;16.70;99.90
9043;DHT22;4556;49.150;8.808;2023-05-19T15:40:11;17.00;99.90
9043;DHT22;4556;49.150;8.808;2023-05-19T15:42:38;16.70;99.90
9043;DHT22;4556;49.150;8.808;2023-05-19T15:45:06;17.50;99.90
9043;DHT22;4556;49.150;8.808;2023-05-19T15:47:35;16.60;99.90
9043;DHT22;4556;49.150;8.808;2023-05-19T15:50:02;16.90;99.90
9043;DHT22;4556;49.150;8.808;2023-05-19T15:52:29;16.70;99.90
9043;DHT22;4556;49.150;8.808;2023-05-19T15:54:56;16.70;99.90
9043;DHT22;4556;49.150;8.808;2023-05-19T15:57:23;17.00;99.90
9043;DHT22;4556;49.150;8.808;2023-05-19T15:59:50;17.20;99.90
9043;DHT22;4556;49.150;8.808;2023-05-19T16:02:17;17.00;99.90
9043;DHT22;4556;49.150;8.808;2023-05-19T16:04:45;16.70;99.90
9043;DHT22;4556;49.150;8.808;2023-05-19T16:07:13;16.80;99.90
9043;DHT22;4556;49.150;8.808;2023-05-19T16:09:41;17.10;99.90
9043;DHT22;4556;49.150;8.808;2023-05-19T16:12:08;16.80;99.90
9043;DHT22;4556;49.150;8.808;2023-05-19T16:14:34;16.70;99.90
9043;DHT22;4556;49.150;8.808;2023-05-19T16:17:02;16.60;99.90
9043;DHT22;4556;49.150;8.808;2023-05-19T16:19:29;16.50;99.90
9043;DHT22;4556;49.150;8.808;2023-05-19T16:21:57;16.90;99.90
9043;DHT22;4556;49.150;8.808;2023-05-19T16:24:24;16.30;99.90
9043;DHT22;4556;49.150;8.808;2023-05-19T16:26:51;16.20;99.90
9043;DHT22;4556;49.150;8.808;2023-05-19T16:29:18;16.30;99.90
9043;DHT22;4556;49.150;8.808;2023-05-19T16:31:45;16.60;99.90
9043;DHT22;4556;49.150;8.808;2023-05-19T16:34:12;16.20;99.90
9043;DHT22;4556;49.150;8.808;2023-05-19T16:36:39;16.20;99.90
9043;DHT22;4556;49.150;8.808;2023-05-19T16:39:07;16.20;99.90
9043;DHT22;4556;49.150;8.808;2023-05-19T16:41:34;16.10;99.90
9043;DHT22;4556;49.150;8.808;2023-05-19T16:44:01;16.10;99.90
9043;DHT22;4556;49.150;8.808;2023-05-19T16:46:28;16.10;99.90
9043;DHT22;4556;49.150;8.808;2023-05-19T16:48:55;16.10;99.90
9043;DHT22;4556;49.150;8.808;2023-05-19T16:51:23;16.50;99.90
9043;DHT22;4556;49.150;8.808;2023-05-19T16:53:50;16.40;99.90
9043;DHT22;4556;49.150;8.808;2023-05-19T16:56:38;16.60;99.90
9043;DHT22;4556;49.150;8.808;2023-05-19T16:59:09;16.30;99.90
9043;DHT22;4556;49.150;8.808;2023-05-19T17:01:58;16.50;99.90
9043;DHT22;4556;49.150;8.808;2023-05-19T17:04:25;16.70;99.90
9043;DHT22;4556;49.150;8.808;2023-05-19T17:09:46;16.40;99.90
9043;DHT22;4556;49.150;8.808;2023-05-19T17:12:14;17.00;99.90
9043;DHT22;4556;49.150;8.808;2023-05-19T17:14:43;16.10;99.90
9043;DHT22;4556;49.150;8.808;2023-05-19T17:17:12;16.00;99.90
9043;DHT22;4556;49.150;8.808;2023-05-19T17:19:53;15.90;99.90
9043;DHT22;4556;49.150;8.808;2023-05-19T17:22:51;15.70;99.90
9043;DHT22;4556;49.150;8.808;2023-05-19T17:25:52;15.80;99.90
9043;DHT22;4556;49.150;8.808;2023-05-19T17:28:18;16.20;99.90
9043;DHT22;4556;49.150;8.808;2023-05-19T17:30:45;15.80;99.90
9043;DHT22;4556;49.150;8.808;2023-05-19T17:33:18;15.60;99.90
9043;DHT22;4556;49.150;8.808;2023-05-19T17:35:51;16.00;99.90
9043;DHT22;4556;49.150;8.808;2023-05-19T17:38:24;16.40;99.90
9043;DHT22;4556;49.150;8.808;2023-05-19T17:40:56;15.70;99.90
9043;DHT22;4556;49.150;8.808;2023-05-19T17:43:45;16.20;99.90
9043;DHT22;4556;49.150;8.808;2023-05-19T17:46:18;15.40;99.90
9043;DHT22;4556;49.150;8.808;2023-05-19T17:49:06;15.40;99.90
9043;DHT22;4556;49.150;8.808;2023-05-19T17:52:07;15.80;99.90
9043;DHT22;4556;49.150;8.808;2023-05-19T17:54:37;15.90;99.90
9043;DHT22;4556;49.150;8.808;2023-05-19T17:57:19;15.80;99.90
9043;DHT22;4556;49.150;8.808;2023-05-19T18:00:03;15.50;99.90
9043;DHT22;4556;49.150;8.808;2023-05-19T18:03:19;15.30;99.90
9043;DHT22;4556;49.150;8.808;2023-05-19T18:05:41;16.80;99.90
9043;DHT22;4556;49.150;8.808;2023-05-19T18:08:12;15.50;99.90
9043;DHT22;4556;49.150;8.808;2023-05-19T18:10:43;15.20;99.90
9043;DHT22;4556;49.150;8.808;2023-05-19T18:13:18;14.80;99.90
9043;DHT22;4556;49.150;8.808;2023-05-19T18:19:07;14.80;99.90
9043;DHT22;4556;49.150;8.808;2023-05-19T18:21:34;14.90;99.90
9043;DHT22;4556;49.150;8.808;2023-05-19T18:24:48;14.60;99.90
9043;DHT22;4556;49.150;8.808;2023-05-19T18:27:22;14.20;99.90
9043;DHT22;4556;49.150;8.808;2023-05-19T18:29:48;14.50;99.90
9043;DHT22;4556;49.150;8.808;2023-05-19T18:32:18;15.40;99.90
9043;DHT22;4556;49.150;8.808;2023-05-19T18:34:58;14.40;99.90
9043;DHT22;4556;49.150;8.808;2023-05-19T18:37:39;15.20;99.90
9043;DHT22;4556;49.150;8.808;2023-05-19T18:40:10;14.40;99.90
9043;DHT22;4556;49.150;8.808;2023-05-19T18:42:38;14.80;99.90
9043;DHT22;4556;49.150;8.808;2023-05-19T18:45:10;15.60;99.90
9043;DHT22;4556;49.150;8.808;2023-05-19T18:47:39;14.50;99.90
9043;DHT22;4556;49.150;8.808;2023-05-19T18:50:09;15.60;99.90
9043;DHT22;4556;49.150;8.808;2023-05-19T18:52:45;13.80;99.90
9043;DHT22;4556;49.150;8.808;2023-05-19T18:55:12;13.90;99.90
9043;DHT22;4556;49.150;8.808;2023-05-19T18:57:48;14.90;99.90
9043;DHT22;4556;49.150;8.808;2023-05-19T19:00:17;12.90;99.90
9043;DHT22;4556;49.150;8.808;2023-05-19T19:03:03;13.50;99.90
9043;DHT22;4556;49.150;8.808;2023-05-19T19:05:49;14.30;99.90
9043;DHT22;4556;49.150;8.808;2023-05-19T19:08:19;12.90;99.90
9043;DHT22;4556;49.150;8.808;2023-05-19T19:10:49;12.90;99.90
9043;DHT22;4556;49.150;8.808;2023-05-19T19:13:34;13.10;99.90
9043;DHT22;4556;49.150;8.808;2023-05-19T19:16:02;12.70;99.90
9043;DHT22;4556;49.150;8.808;2023-05-19T19:18:30;12.70;99.90
9043;DHT22;4556;49.150;8.808;2023-05-19T19:21:10;12.70;99.90
9043;DHT22;4556;49.150;8.808;2023-05-19T19:23:40;12.10;99.90
9043;DHT22;4556;49.150;8.808;2023-05-19T19:26:09;12.30;99.90
9043;DHT22;4556;49.150;8.808;2023-05-19T19:28:36;12.70;99.90
9043;DHT22;4556;49.150;8.808;2023-05-19T19:31:07;12.40;99.90
9043;DHT22;4556;49.150;8.808;2023-05-19T19:33:48;12.60;99.90
9043;DHT22;4556;49.150;8.808;2023-05-19T19:36:17;13.00;99.90
9043;DHT22;4556;49.150;8.808;2023-05-19T19:38:44;12.70;99.90
9043;DHT22;4556;49.150;8.808;2023-05-19T19:41:11;12.40;99.90
9043;DHT22;4556;49.150;8.808;2023-05-19T19:43:44;12.00;99.90
9043;DHT22;4556;49.150;8.808;2023-05-19T19:46:28;12.50;99.90
9043;DHT22;4556;49.150;8.808;2023-05-19T19:49:01;12.00;99.90
9043;DHT22;4556;49.150;8.808;2023-05-19T19:51:41;12.30;99.90
9043;DHT22;4556;49.150;8.808;2023-05-19T19:54:18;12.80;99.90
9043;DHT22;4556;49.150;8.808;2023-05-19T19:56:48;12.40;99.90
9043;DHT22;4556;49.150;8.808;2023-05-19T19:59:18;11.90;99.90
9043;DHT22;4556;49.150;8.808;2023-05-19T20:01:45;12.30;99.90
9043;DHT22;4556;49.150;8.808;2023-05-19T20:04:12;12.30;99.90
9043;DHT22;4556;49.150;8.808;2023-05-19T20:06:44;12.20;99.90
9043;DHT22;4556;49.150;8.808;2023-05-19T20:09:11;12.90;99.90
9043;DHT22;4556;49.150;8.808;2023-05-19T20:11:38;12.30;99.90
9043;DHT22;4556;49.150;8.808;2023-05-19T20:14:05;12.20;99.90
9043;DHT22;4556;49.150;8.808;2023-05-19T20:16:43;12.30;99.90
9043;DHT22;4556;49.150;8.808;2023-05-19T20:19:12;12.10;99.90
9043;DHT22;4556;49.150;8.808;2023-05-19T20:21:43;12.20;99.90
9043;DHT22;4556;49.150;8.808;2023-05-19T20:24:13;11.60;99.90
9043;DHT22;4556;49.150;8.808;2023-05-19T20:26:40;13.40;99.90
9043;DHT22;4556;49.150;8.808;2023-05-19T20:29:15;12.10;99.90
9043;DHT22;4556;49.150;8.808;2023-05-19T20:31:44;12.60;99.90
9043;DHT22;4556;49.150;8.808;2023-05-19T20:34:17;11.30;99.90
9043;DHT22;4556;49.150;8.808;2023-05-19T20:36:44;12.70;99.90
9043;DHT22;4556;49.150;8.808;2023-05-19T20:39:15;12.90;99.90
9043;DHT22;4556;49.150;8.808;2023-05-19T20:41:42;12.00;99.90
9043;DHT22;4556;49.150;8.808;2023-05-19T20:44:09;13.30;99.90
9043;DHT22;4556;49.150;8.808;2023-05-19T20:46:36;12.10;99.90
9043;DHT22;4556;49.150;8.808;2023-05-19T20:49:10;12.20;99.90
9043;DHT22;4556;49.150;8.808;2023-05-19T20:51:44;12.40;99.90
9043;DHT22;4556;49.150;8.808;2023-05-19T20:54:26;12.30;99.90
9043;DHT22;4556;49.150;8.808;2023-05-19T20:57:15;11.70;99.90
9043;DHT22;4556;49.150;8.808;2023-05-19T20:59:46;12.90;99.90
9043;DHT22;4556;49.150;8.808;2023-05-19T21:02:22;12.20;99.90
9043;DHT22;4556;49.150;8.808;2023-05-19T21:05:03;12.10;99.90
9043;DHT22;4556;49.150;8.808;2023-05-19T21:07:40;12.10;99.90
9043;DHT22;4556;49.150;8.808;2023-05-19T21:10:12;11.90;99.90
9043;DHT22;4556;49.150;8.808;2023-05-19T21:12:39;12.90;99.90
9043;DHT22;4556;49.150;8.808;2023-05-19T21:15:07;13.20;99.90
9043;DHT22;4556;49.150;8.808;2023-05-19T21:17:55;12.00;99.90
9043;DHT22;4556;49.150;8.808;2023-05-19T21:20:22;12.50;99.90
9043;DHT22;4556;49.150;8.808;2023-05-19T21:22:51;11.90;99.90
9043;DHT22;4556;49.150;8.808;2023-05-19T21:25:30;10.70;99.90
9043;DHT22;4556;49.150;8.808;2023-05-19T21:28:00;11.90;99.90
9043;DHT22;4556;49.150;8.808;2023-05-19T21:30:27;12.60;99.90
9043;DHT22;4556;49.150;8.808;2023-05-19T21:33:15;13.00;99.90
9043;DHT22;4556;49.150;8.808;2023-05-19T21:35:43;13.10;99.90
9043;DHT22;4556;49.150;8.808;2023-05-19T21:38:11;12.70;99.90
9043;DHT22;4556;49.150;8.808;2023-05-19T21:40:39;12.00;99.90
9043;DHT22;4556;49.150;8.808;2023-05-19T21:43:06;10.80;99.90
9043;DHT22;4556;49.150;8.808;2023-05-19T21:45:33;12.60;99.90
9043;DHT22;4556;49.150;8.808;2023-05-19T21:48:02;11.90;99.90